createdAt,value
2018-08-17T00:02:01.649Z,20.97
2018-08-17T00:06:10.010Z,21.60
2018-08-17T00:10:18.515Z,21.47
2018-08-17T00:14:26.885Z,24.17
2018-08-17T00:18:35.174Z,20.53
2018-08-17T00:22:43.494Z,22.40
2018-08-17T00:26:51.865Z,21.25
2018-08-17T00:31:00.176Z,21.70
2018-08-17T00:35:08.501Z,22.63
2018-08-17T00:39:16.817Z,20.80
2018-08-17T00:43:25.227Z,22.73
2018-08-17T00:47:33.499Z,23.50
2018-08-17T00:51:41.863Z,24.53
2018-08-17T00:55:50.192Z,24.40
2018-08-17T00:59:58.544Z,20.07
2018-08-17T01:04:06.937Z,19.87
2018-08-17T01:08:15.309Z,16.80
2018-08-17T01:12:23.662Z,15.97
2018-08-17T01:16:31.957Z,12.70
2018-08-17T01:20:40.283Z,11.80
2018-08-17T01:24:48.584Z,12.13
2018-08-17T01:28:56.917Z,11.90
2018-08-17T01:33:05.189Z,11.00
2018-08-17T01:37:13.487Z,9.90
2018-08-17T01:41:21.894Z,9.13
2018-08-17T01:45:30.154Z,10.43
2018-08-17T01:49:38.499Z,10.03
2018-08-17T01:53:46.814Z,8.40
2018-08-17T01:57:55.129Z,8.03
2018-08-17T02:02:03.436Z,8.50
2018-08-17T02:06:11.758Z,7.13
2018-08-17T02:10:20.025Z,7.50
2018-08-17T02:14:28.356Z,7.60
2018-08-17T02:18:36.665Z,7.50
2018-08-17T02:22:45.010Z,7.05
2018-08-17T02:26:53.711Z,7.63
2018-08-17T02:31:02.050Z,7.77
2018-08-17T02:35:10.366Z,7.30
2018-08-17T02:39:18.662Z,8.57
2018-08-17T02:43:27.067Z,7.78
2018-08-17T02:47:35.431Z,7.40
2018-08-17T02:51:43.774Z,8.73
2018-08-17T02:55:52.134Z,9.33
2018-08-17T03:00:00.446Z,8.50
2018-08-17T03:04:08.759Z,8.63
2018-08-17T03:08:17.163Z,10.47
2018-08-17T03:12:25.439Z,9.30
2018-08-17T03:16:33.814Z,10.23
2018-08-17T03:20:42.122Z,10.80
2018-08-17T03:24:50.473Z,10.90
2018-08-17T03:28:58.830Z,10.70
2018-08-17T03:33:07.133Z,9.77
2018-08-17T03:37:15.446Z,10.67
2018-08-17T03:41:23.781Z,10.20
2018-08-17T03:45:32.044Z,9.00
2018-08-17T03:49:40.082Z,9.63
2018-08-17T03:53:48.390Z,9.23
2018-08-17T03:57:56.668Z,8.40
2018-08-17T04:02:04.714Z,9.43
2018-08-17T04:06:13.001Z,10.33
2018-08-17T04:10:21.322Z,10.40
2018-08-17T04:14:29.644Z,9.00
2018-08-17T04:18:37.943Z,10.10
2018-08-17T04:22:46.266Z,10.63
2018-08-17T04:26:54.590Z,10.60
2018-08-17T04:31:02.903Z,10.43
2018-08-17T04:35:11.196Z,9.57
2018-08-17T04:39:19.521Z,9.70
2018-08-17T04:43:27.888Z,9.43
2018-08-17T04:47:36.194Z,9.63
2018-08-17T04:51:44.493Z,9.80
2018-08-17T04:55:52.805Z,9.60
2018-08-17T05:00:01.107Z,9.30
2018-08-17T05:04:09.415Z,9.83
2018-08-17T05:08:17.802Z,9.77
2018-08-17T05:12:26.154Z,10.10
2018-08-17T05:16:34.475Z,9.40
2018-08-17T05:20:42.793Z,8.30
2018-08-17T05:24:51.113Z,9.90
2018-08-17T05:28:59.442Z,8.97
2018-08-17T05:33:07.714Z,9.93
2018-08-17T05:37:15.981Z,8.90
2018-08-17T05:41:24.279Z,9.53
2018-08-17T05:45:32.582Z,9.37
2018-08-17T05:49:40.927Z,9.17
2018-08-17T05:53:49.871Z,9.90
2018-08-17T05:57:58.200Z,8.60
2018-08-17T06:02:06.527Z,9.07
2018-08-17T06:06:14.860Z,9.70
2018-08-17T06:10:23.148Z,9.13
2018-08-17T06:14:31.458Z,9.20
2018-08-17T06:18:39.765Z,8.60
2018-08-17T06:22:48.077Z,10.40
2018-08-17T06:26:56.375Z,9.57
2018-08-17T06:31:04.906Z,7.93
2018-08-17T06:35:13.853Z,8.05
2018-08-17T06:39:22.223Z,7.87
2018-08-17T06:43:30.502Z,6.40
2018-08-17T06:47:38.798Z,8.10
2018-08-17T06:51:47.094Z,7.23
2018-08-17T06:55:55.405Z,6.83
2018-08-17T07:00:04.625Z,6.47
2018-08-17T07:04:12.920Z,8.10
2018-08-17T07:08:21.236Z,6.90
2018-08-17T07:12:29.558Z,7.70
2018-08-17T07:16:38.215Z,6.60
2018-08-17T07:20:46.540Z,9.47
2018-08-17T07:24:54.849Z,9.33
2018-08-17T07:29:03.185Z,10.35
2018-08-17T07:33:11.568Z,9.70
2018-08-17T07:37:19.881Z,9.47
2018-08-17T07:41:28.265Z,9.77
2018-08-17T07:45:36.574Z,8.83
2018-08-17T07:49:44.899Z,8.23
2018-08-17T07:53:53.351Z,8.50
2018-08-17T07:58:01.638Z,8.37
2018-08-17T08:02:09.949Z,10.17
2018-08-17T08:06:18.248Z,6.13
2018-08-17T08:10:26.609Z,7.27
2018-08-17T08:14:34.937Z,8.40
2018-08-17T08:18:43.243Z,8.47
2018-08-17T08:23:01.666Z,6.97
2018-08-17T08:27:09.966Z,6.20
2018-08-17T08:31:18.272Z,6.30
2018-08-17T08:35:26.559Z,6.10
2018-08-17T08:39:34.837Z,5.83
2018-08-17T08:43:43.188Z,5.50
2018-08-17T08:47:51.627Z,5.70
2018-08-17T08:51:59.933Z,5.47
2018-08-17T08:56:08.280Z,6.60
2018-08-17T09:00:16.570Z,6.40
2018-08-17T09:04:24.896Z,7.07
2018-08-17T09:08:33.194Z,6.70
2018-08-17T09:12:41.503Z,7.63
2018-08-17T09:16:49.862Z,7.30
2018-08-17T09:20:58.240Z,7.90
2018-08-17T09:25:06.549Z,7.30
2018-08-17T09:29:14.910Z,8.63
2018-08-17T09:33:23.165Z,8.50
2018-08-17T09:37:31.432Z,6.37
2018-08-17T09:41:39.899Z,5.60
2018-08-17T09:45:48.157Z,5.90
2018-08-17T09:49:56.511Z,5.97
2018-08-17T09:54:05.592Z,5.50
2018-08-17T09:58:13.876Z,6.07
2018-08-17T10:02:27.498Z,4.83
2018-08-17T10:06:41.235Z,5.33
2018-08-17T10:10:49.556Z,6.00
2018-08-17T10:14:57.844Z,6.23
2018-08-17T10:19:06.174Z,7.20
2018-08-17T10:23:20.196Z,8.20
2018-08-17T10:27:28.596Z,7.40
2018-08-17T10:31:38.187Z,8.20
2018-08-17T10:35:46.434Z,8.67
2018-08-17T10:39:54.948Z,7.83
2018-08-17T10:44:03.243Z,9.00
2018-08-17T10:48:11.536Z,9.17
2018-08-17T10:52:19.875Z,9.60
2018-08-17T10:56:28.177Z,10.40
2018-08-17T11:00:36.541Z,9.77
2018-08-17T11:04:45.558Z,9.20
2018-08-17T11:08:53.849Z,9.57
2018-08-17T11:13:02.175Z,10.13
2018-08-17T11:17:10.482Z,9.17
2018-08-17T11:21:18.816Z,10.17
2018-08-17T11:25:27.246Z,8.53
2018-08-17T11:29:35.527Z,8.90
2018-08-17T11:33:43.828Z,9.30
2018-08-17T11:37:52.443Z,7.93
2018-08-17T11:42:00.772Z,7.70
2018-08-17T11:46:09.110Z,9.90
2018-08-17T11:50:18.978Z,10.40
2018-08-17T11:54:27.297Z,9.85
2018-08-17T11:58:35.563Z,4.90
2018-08-17T12:02:44.212Z,6.33
2018-08-17T12:06:52.559Z,6.43
2018-08-17T12:11:06.199Z,6.47
2018-08-17T12:15:15.150Z,5.90
2018-08-17T12:19:23.461Z,5.40
2018-08-17T12:23:31.757Z,7.07
2018-08-17T12:27:42.019Z,6.63
2018-08-17T12:31:50.123Z,5.60
2018-08-17T12:35:58.462Z,6.10
2018-08-17T12:40:06.905Z,5.60
2018-08-17T12:44:17.993Z,6.53
2018-08-17T12:48:26.329Z,5.87
2018-08-17T12:52:34.690Z,5.80
2018-08-17T12:56:43.013Z,6.90
2018-08-17T13:00:51.333Z,6.87
2018-08-17T13:04:59.781Z,5.63
2018-08-17T13:09:08.222Z,5.83
2018-08-17T13:13:16.549Z,6.13
2018-08-17T13:17:26.884Z,5.80
2018-08-17T13:21:35.256Z,5.23
2018-08-17T13:25:43.617Z,4.90
2018-08-17T13:29:51.955Z,5.20
2018-08-17T13:34:00.670Z,4.50
2018-08-17T13:38:09.029Z,4.47
2018-08-17T13:42:17.400Z,4.57
2018-08-17T13:46:25.721Z,4.80
2018-08-17T13:50:34.089Z,4.33
2018-08-17T13:54:44.498Z,3.90
2018-08-17T13:58:52.819Z,3.80
2018-08-17T14:03:01.190Z,3.53
2018-08-17T14:07:09.469Z,3.17
2018-08-17T14:11:17.907Z,3.87
2018-08-17T14:15:26.261Z,4.40
2018-08-17T14:19:34.600Z,3.90
2018-08-17T14:23:43.163Z,3.03
2018-08-17T14:27:51.505Z,3.93
2018-08-17T14:31:59.832Z,3.40
2018-08-17T14:36:08.355Z,3.80
2018-08-17T14:40:16.728Z,3.40
2018-08-17T14:44:25.350Z,4.77
2018-08-17T14:48:33.726Z,3.10
2018-08-17T14:52:42.458Z,4.10
2018-08-17T14:56:50.789Z,4.10
2018-08-17T15:00:59.142Z,4.40
2018-08-17T15:05:09.026Z,4.10
2018-08-17T15:09:17.382Z,3.37
2018-08-17T15:13:25.756Z,3.50
2018-08-17T15:17:34.027Z,3.70
2018-08-17T15:21:42.341Z,3.50
2018-08-17T15:25:50.722Z,3.27
2018-08-17T15:29:59.056Z,3.23
2018-08-17T15:34:07.399Z,3.30
2018-08-17T15:38:15.687Z,3.03
2018-08-17T15:42:24.687Z,3.30
2018-08-17T15:46:33.478Z,3.57
2018-08-17T15:50:41.841Z,3.00
2018-08-17T15:54:50.242Z,3.60
2018-08-17T15:58:58.538Z,2.70
2018-08-17T16:03:06.916Z,2.90
2018-08-17T16:07:15.281Z,2.90
2018-08-17T16:11:23.599Z,3.00
2018-08-17T16:15:31.929Z,3.20
2018-08-17T16:19:40.210Z,3.50
2018-08-17T16:23:48.593Z,3.30
2018-08-17T16:27:56.908Z,3.98
2018-08-17T16:32:05.311Z,2.90
2018-08-17T16:36:13.660Z,3.10
2018-08-17T16:40:21.958Z,2.87
2018-08-17T16:44:30.790Z,3.23
2018-08-17T16:48:39.883Z,3.43
2018-08-17T16:52:48.190Z,4.03
2018-08-17T16:56:56.543Z,3.67
2018-08-17T17:01:04.977Z,3.80
2018-08-17T17:05:13.318Z,3.63
2018-08-17T17:09:21.652Z,3.60
2018-08-17T17:13:29.951Z,3.53
2018-08-17T17:17:38.274Z,3.97
2018-08-17T17:21:47.632Z,3.40
2018-08-17T17:25:55.933Z,3.47
2018-08-17T17:30:05.151Z,4.13
2018-08-17T17:34:13.473Z,4.00
2018-08-17T17:38:21.900Z,3.97
2018-08-17T17:42:29.940Z,4.33
2018-08-17T17:46:38.869Z,4.50
2018-08-17T17:50:47.168Z,4.03
2018-08-17T17:54:55.539Z,3.63
2018-08-17T17:59:11.078Z,4.20
2018-08-17T18:03:19.455Z,3.77
2018-08-17T18:07:33.529Z,3.90
2018-08-17T18:11:41.880Z,3.80
2018-08-17T18:15:50.187Z,3.90
2018-08-17T18:19:58.493Z,4.17
2018-08-17T18:24:12.447Z,4.67
2018-08-17T18:28:20.755Z,4.33
2018-08-17T18:32:29.098Z,5.00
2018-08-17T18:36:37.406Z,4.90
2018-08-17T18:40:45.740Z,5.57
2018-08-17T18:44:54.112Z,5.00
2018-08-17T18:49:02.377Z,4.37
2018-08-17T18:53:10.725Z,6.00
2018-08-17T18:57:19.049Z,6.37
2018-08-17T19:01:27.460Z,5.27
2018-08-17T19:05:35.778Z,5.13
2018-08-17T19:09:44.646Z,5.40
2018-08-17T19:13:52.964Z,5.20
2018-08-17T19:18:01.312Z,5.43
2018-08-17T19:22:09.653Z,4.47
2018-08-17T19:26:17.773Z,5.57
2018-08-17T19:30:31.432Z,5.43
2018-08-17T19:34:39.758Z,5.10
2018-08-17T19:38:48.059Z,5.17
2018-08-17T19:42:56.404Z,5.50
2018-08-17T19:47:04.756Z,5.50
2018-08-17T19:51:17.117Z,5.10
2018-08-17T19:55:25.445Z,4.57
2018-08-17T19:59:34.452Z,5.50
2018-08-17T20:03:42.789Z,5.90
2018-08-17T20:07:51.238Z,7.40
2018-08-17T20:11:59.506Z,8.80
2018-08-17T20:16:18.497Z,8.20
2018-08-17T20:20:26.786Z,7.73
2018-08-17T20:24:35.115Z,7.90
2018-08-17T20:28:43.418Z,7.90
2018-08-17T20:32:51.775Z,8.00
2018-08-17T20:37:00.066Z,6.30
2018-08-17T20:41:08.378Z,6.30
2018-08-17T20:45:16.675Z,5.90
2018-08-17T20:49:25.002Z,6.30
2018-08-17T20:53:33.346Z,5.40
2018-08-17T20:57:41.661Z,5.22
2018-08-17T21:01:49.971Z,4.77
2018-08-17T21:05:58.271Z,5.30
2018-08-17T21:10:06.570Z,5.87
2018-08-17T21:14:14.863Z,5.80
2018-08-17T21:18:23.167Z,6.20
2018-08-17T21:22:31.495Z,5.53
2018-08-17T21:26:39.844Z,5.50
2018-08-17T21:30:48.165Z,5.40
2018-08-17T21:34:56.515Z,5.37
2018-08-17T21:39:13.277Z,5.10
2018-08-17T21:43:21.697Z,5.60
2018-08-17T21:47:29.974Z,4.83
2018-08-17T21:51:38.262Z,5.37
2018-08-17T21:55:46.548Z,4.65
2018-08-17T21:59:54.922Z,4.97
2018-08-17T22:04:03.222Z,4.00
2018-08-17T22:08:11.528Z,5.23
2018-08-17T22:12:19.875Z,5.77
2018-08-17T22:16:28.178Z,5.40
2018-08-17T22:20:36.467Z,5.10
2018-08-17T22:24:50.267Z,5.50
2018-08-17T22:28:58.594Z,5.50
2018-08-17T22:33:06.923Z,4.77
2018-08-17T22:37:15.480Z,5.30
2018-08-17T22:41:23.755Z,5.77
2018-08-17T22:45:32.050Z,5.30
2018-08-17T22:49:40.347Z,6.03
2018-08-17T22:53:48.793Z,6.23
2018-08-17T22:57:59.281Z,5.30
2018-08-17T23:02:07.864Z,5.23
2018-08-17T23:06:16.295Z,5.80
2018-08-17T23:10:25.761Z,5.90
2018-08-17T23:14:34.063Z,5.70
2018-08-17T23:18:42.371Z,5.80
2018-08-17T23:22:52.733Z,5.50
2018-08-17T23:27:01.102Z,5.80
2018-08-17T23:31:09.367Z,5.40
2018-08-17T23:35:17.697Z,5.00
2018-08-17T23:39:26.007Z,5.27
2018-08-17T23:43:34.318Z,5.27
2018-08-17T23:47:42.708Z,4.73
2018-08-17T23:51:51.074Z,5.53
2018-08-17T23:55:59.397Z,6.10
